Terminal Aerodrome Forecast
Issued by NWS Miami, FL

Home | Current Version | Previous Version | Text Only | Print | Product List | Glossary On
Versions: 1 2 3 4 5 6 7 8 9 10 11 12 13 14 15 16 17 18 19 20 21 22 23 24 25
000
FTUS42 KMFL 181144
TAFPBI
TAF
KPBI 181144Z 1812/1912 12010KT P6SM VCSH FEW015 SCT025 BKN130
     FM181400 14014G21KT P6SM SCT040 BKN120
     FM190400 17010KT P6SM VCTS SCT025CB BKN040 OVC100=

USA.gov is the U.S. government's official web portal to all federal, state and local government web resources and services.